Latest Weather Observations for Lajamanu

IDD60801

Issued at 10:05 pm CST Wednesday 1 October 2014 (issued every 30 minutes, with the page automatically refreshed every 10 minutes)

About weather observations | Map of weather stations | Latest weather observations for NT | Other Formats
Station Details ID: 014829 Name: LAJAMANU AIRPORT Lat: -18.33 Lon: 130.64 Height: 315.6 m
Data from the previous 72 hours. | See also: Recent months at Lajamanu
Date/Time
CST
Temp
°C
App
Temp
°C
Dew
Point
Rel
Hum
%
Delta-T
°C
Wind Press
QNH
hPa
Press
MSL
hPa
Rain
since 9 am
mm
Dir
 
Spd
km/h
Gust
km/h
Spd
kts
Gust
kts
01/10:00pm 26.2 25.7 7.7 31 10.0 E 0 0 0 0 1013.9 1011.7 0.0
01/09:30pm 27.6 25.4 8.0 29 10.7 E 9 9 5 5 1013.8 1011.6 0.0
01/09:00pm 29.3 26.7 7.8 26 11.8 E 11 13 6 7 1013.5 1011.3 0.0
01/08:30pm 29.8 28.1 8.2 26 12.0 E 7 9 4 5 1013.2 1011.0 0.0
01/08:00pm 29.8 28.1 7.7 25 12.2 ESE 6 7 3 4 1012.8 1010.6 0.0
01/07:30pm 30.3 29.3 7.5 24 12.6 SE 2 7 1 4 1012.3 1010.2 0.0
01/07:00pm 31.6 29.5 6.6 21 13.7 ESE 7 9 4 5 1012.0 1009.8 0.0
01/06:30pm 33.6 31.2 6.8 19 14.9 ESE 9 11 5 6 1011.6 1009.4 0.0
01/06:00pm 34.8 32.0 7.0 18 15.6 ESE 11 17 6 9 1011.4 1009.2 0.0
01/05:30pm 35.5 31.1 4.9 15 16.6 E 17 24 9 13 1011.2 1009.0 0.0
01/05:00pm 36.6 30.9 4.8 14 17.3 E 24 33 13 18 1011.1 1008.9 0.0
01/04:30pm 37.5 32.5 4.4 13 18.0 E 20 35 11 19 1011.0 1008.8 0.0
01/04:00pm 37.6 32.8 4.5 13 18.1 E 19 24 10 13 1011.2 1009.0 0.0
01/03:30pm 37.7 33.5 5.6 14 17.8 E 17 22 9 12 1011.5 1009.3 0.0
01/03:00pm 37.3 33.4 5.3 14 17.7 SE 15 30 8 16 1011.8 1009.6 0.0
01/02:30pm 37.2 32.3 5.3 14 17.6 ESE 20 37 11 20 1012.3 1010.2 0.0
01/02:00pm 36.6 33.0 4.8 14 17.3 E 13 35 7 19 1012.6 1010.5 0.0
01/01:30pm 35.9 33.9 8.7 19 15.7 NE 9 17 5 9 1013.3 1011.1 0.0
01/01:00pm 35.2 32.3 8.1 19 15.4 NNE 13 19 7 10 1014.0 1011.8 0.0
01/12:30pm 35.3 32.2 8.9 20 15.2 N 15 24 8 13 1014.4 1012.2 0.0
01/12:00pm 34.5 30.9 8.3 20 14.9 N 17 24 9 13 1014.7 1012.5 0.0
01/11:30am 34.2 30.5 9.4 22 14.3 N 19 30 10 16 1015.1 1013.0 0.0
01/11:00am 34.3 31.0 9.5 22 14.4 N 17 33 9 18 1015.6 1013.5 0.0
01/10:30am 32.9 29.2 10.3 25 13.2 N 20 30 11 16 1015.9 1013.8 0.0
01/10:00am 32.1 27.9 9.6 25 12.9 N 22 35 12 19 1015.8 1013.7 0.0
01/09:30am 31.1 27.3 9.9 27 12.2 N 20 28 11 15 1015.5 1013.4 0.0
01/09:00am 30.0 25.9 10.0 29 11.5 N 22 30 12 16 1015.6 1013.9 0.0
01/08:30am 28.1 23.6 9.9 32 10.3 N 24 30 13 16 1015.4 1013.7 0.0
01/08:00am 26.8 22.5 9.2 33 9.8 N 22 32 12 17 1015.1 1013.4 0.0
01/07:30am 26.0 21.5 8.5 33 9.6 N 22 30 12 16 1014.7 1013.0 0.0
01/07:00am 24.7 21.0 7.8 34 9.1 N 17 20 9 11 1014.4 1012.6 0.0
01/06:30am 24.1 20.7 7.7 35 8.8 NNE 15 20 8 11 1014.2 1012.4 0.0
01/06:00am 22.5 20.8 10.0 45 6.9 E 9 19 5 10 1014.0 1012.2 0.0
01/05:30am 19.3 19.1 9.2 52 5.4 CALM 0 4 0 2 1013.2 1011.4 0.0
01/05:00am 19.2 18.4 9.7 54 5.1 SSE 4 7 2 4 1012.9 1011.1 0.0
01/04:30am 18.8 18.6 9.0 53 5.2 SSE 0 6 0 3 1012.8 1011.0 0.0
01/04:00am 20.1 19.2 9.1 49 5.9 ENE 4 7 2 4 1012.6 1010.9 0.0
01/03:30am 19.5 19.1 8.2 48 5.9 CALM 0 0 0 0 1012.6 1010.9 0.0
01/03:00am 21.0 20.6 8.3 44 6.7 SSE 0 0 0 0 1012.8 1011.0 0.0
01/02:30am 22.9 20.9 8.6 40 7.7 ESE 9 13 5 7 1012.8 1011.0 0.0
01/02:00am 23.6 21.1 8.1 37 8.3 E 11 13 6 7 1013.0 1011.2 0.0
01/01:30am 23.9 21.2 7.5 35 8.7 E 11 13 6 7 1013.2 1011.4 0.0
01/01:00am 25.4 22.6 7.1 31 9.8 E 11 15 6 8 1013.4 1011.6 0.0
01/12:30am 27.7 24.7 7.5 28 11.0 NNE 13 15 7 8 1013.4 1011.6 0.0
01/12:00am 24.3 21.9 7.0 33 9.1 NE 9 11 5 6 1013.6 1011.8 0.0
 
Date/Time
CST
Temp
°C
App
Temp
°C
Dew
Point
Rel
Hum
%
Delta-T
°C
Wind Press
QNH
hPa
Press
MSL
hPa
Rain
since 9 am
mm
Dir
 
Spd
km/h
Gust
km/h
Spd
kts
Gust
kts
30/11:30pm 26.0 23.4 6.1 28 10.5 NE 9 11 5 6 1013.7 1011.9 0.0
30/11:00pm 28.3 25.1 7.0 26 11.5 NNE 13 15 7 8 1013.8 1012.0 0.0
30/10:30pm 28.4 25.4 7.6 27 11.4 NNE 13 15 7 8 1013.9 1012.1 0.0
30/10:00pm 28.8 25.7 7.4 26 11.7 NNE 13 15 7 8 1013.8 1012.0 0.0
30/09:30pm 28.8 26.1 7.4 26 11.7 NNE 11 13 6 7 1013.7 1011.9 0.0
30/09:00pm 30.0 26.9 7.2 24 12.5 NNE 13 17 7 9 1013.5 1011.7 0.0
30/08:30pm 30.7 27.3 7.8 24 12.7 NE 15 22 8 12 1013.2 1011.4 0.0
30/08:00pm 30.9 28.0 8.0 24 12.8 NE 13 15 7 8 1012.9 1011.1 0.0
30/07:30pm 30.0 27.6 7.2 24 12.5 ENE 9 11 5 6 1012.3 1010.6 0.0
30/07:00pm 31.4 28.6 7.1 22 13.4 ENE 11 11 6 6 1011.9 1010.2 0.0
30/06:30pm 33.6 30.4 6.8 19 14.9 E 13 17 7 9 1011.4 1009.6 0.0
30/06:00pm 35.0 31.7 6.3 17 15.9 E 13 19 7 10 1011.0 1009.2 0.0
30/05:30pm 36.0 33.2 5.3 15 16.8 ENE 9 17 5 9 1010.6 1008.8 0.0
30/05:00pm 36.5 32.5 4.7 14 17.3 ENE 15 22 8 12 1010.4 1008.6 0.0
30/04:30pm 37.0 33.8 2.9 12 18.1 ENE 9 17 5 9 1010.4 1008.6 0.0
30/04:00pm 37.3 33.9 1.9 11 18.5 ESE 9 17 5 9 1010.5 1008.7 0.0
30/03:30pm 36.7 33.0 0.1 10 18.6 ENE 9 11 5 6 1010.6 1008.8 0.0
30/03:00pm 37.6 33.3 0.8 10 19.0 ENE 13 20 7 11 1010.9 1009.1 0.0
30/02:30pm 37.1 33.1 3.0 12 18.1 E 13 26 7 14 1011.2 1009.4 0.0
30/02:00pm 37.0 33.2 4.0 13 17.8 NE 13 19 7 10 1011.6 1009.8 0.0
30/01:30pm 36.2 33.1 5.5 15 16.9 NNE 11 22 6 12 1012.1 1010.4 0.0
30/01:00pm 35.5 32.3 6.7 17 16.1 NNW 13 24 7 13 1012.6 1010.9 0.0
30/12:30pm 35.7 32.1 8.5 19 15.6 N 17 24 9 13 1013.3 1011.5 0.0
30/12:00pm 34.5 31.1 9.0 21 14.7 NNW 17 24 9 13 1013.8 1012.0 0.0
30/11:30am 33.9 30.4 7.0 19 15.0 N 15 24 8 13 1014.3 1012.5 0.0
30/11:00am 32.7 28.6 6.1 19 14.5 NNW 17 24 9 13 1014.7 1013.0 0.0
30/10:30am 32.4 27.8 1.5 14 15.6 N 15 22 8 12 1014.9 1013.2 0.0
30/10:00am 30.8 26.4 2.9 17 14.3 N 15 20 8 11 1015.0 1013.3 0.0
30/09:30am 28.6 24.6 2.7 19 13.0 NNE 13 20 7 11 1015.1 1013.4 0.0
30/09:00am 26.8 22.5 3.3 22 11.8 NNE 15 20 8 11 1015.0 1013.3 0.0
30/08:30am 24.3 21.3 1.9 23 10.8 ESE 7 9 4 5 1015.0 1013.3 0.0
30/08:00am 21.8 18.7 0.4 24 9.8 SE 6 6 3 3 1014.6 1012.9 0.0
30/07:30am 18.6 15.6 0.7 30 8.1 E 6 11 3 6 1014.2 1012.4 0.0
30/07:00am 16.6 13.3 -0.1 32 7.3 ENE 7 11 4 6 1013.7 1011.9 0.0
30/06:30am 17.1 13.4 -0.1 31 7.5 S 9 19 5 10 1013.1 1011.3 0.0
30/06:00am 16.8 12.7 -0.4 31 7.5 NW 11 13 6 7 1012.9 1011.1 0.0
30/05:30am 16.8 13.4 -0.9 30 7.6 NW 7 11 4 6 1012.5 1010.8 0.0
30/05:00am 16.2 12.1 -0.5 32 7.2 NW 11 15 6 8 1012.4 1010.7 0.0
30/04:30am 15.4 12.6 -0.4 34 6.8 WNW 4 6 2 3 1012.1 1010.4 0.0
30/04:00am 15.8 12.4 -0.8 32 7.1 NW 7 9 4 5 1011.9 1010.2 0.0
30/03:30am 15.7 12.3 -1.8 30 7.3 N 6 7 3 4 1011.8 1010.1 0.0
30/03:00am 16.3 13.0 -1.3 30 7.5 N 6 7 3 4 1011.8 1010.1 0.0
30/02:30am 16.5 14.4 -1.1 30 7.5 CALM 0 0 0 0 1011.8 1010.1 0.0
30/02:00am 17.3 15.1 -1.4 28 8.0 CALM 0 0 0 0 1011.9 1010.2 0.0
30/01:30am 19.1 16.9 -1.4 25 8.9 CALM 0 0 0 0 1012.0 1010.3 0.0
30/01:00am 19.0 16.7 -2.0 24 9.0 CALM 0 6 0 3 1012.4 1010.7 0.0
30/12:30am 20.1 17.1 -1.7 23 9.5 SSW 4 9 2 5 1012.9 1011.1 0.0
30/12:00am 24.9 19.5 -4.4 14 12.6 ENE 15 17 8 9 1012.8 1011.0 0.0
 
Date/Time
CST
Temp
°C
App
Temp
°C
Dew
Point
Rel
Hum
%
Delta-T
°C
Wind Press
QNH
hPa
Press
MSL
hPa
Rain
since 9 am
mm
Dir
 
Spd
km/h
Gust
km/h
Spd
kts
Gust
kts
29/11:30pm 25.2 20.2 -4.2 14 12.7 E 13 13 7 7 1012.9 1011.1 0.0
29/11:00pm 24.3 20.1 -4.0 15 12.2 SE 9 11 5 6 1013.2 1011.4 0.0
29/10:30pm 21.4 18.7 -2.5 20 10.3 S 2 6 1 3 1013.3 1011.5 0.0
29/10:00pm 22.3 18.8 -1.7 20 10.6 SSE 7 7 4 4 1013.4 1011.6 0.0
29/09:30pm 21.9 18.4 -2.7 19 10.7 SSE 6 7 3 4 1013.1 1011.3 0.0
29/09:00pm 23.2 20.0 -3.2 17 11.5 SSE 4 7 2 4 1012.6 1010.9 0.0
29/08:30pm 26.1 21.9 -3.5 14 13.1 SE 9 9 5 5 1012.3 1010.6 0.0
29/08:00pm 26.2 22.3 -4.4 13 13.3 SE 7 9 4 5 1011.9 1010.2 0.0
29/07:30pm 27.8 23.6 -4.2 12 14.2 SE 9 9 5 5 1011.5 1009.7 0.0
29/07:00pm 29.6 25.8 -3.9 11 15.1 SE 7 9 4 5 1011.1 1009.3 0.0
29/06:30pm 32.6 28.4 -4.3 9 17.0 SE 9 11 5 6 1010.7 1008.9 0.0
29/06:00pm 34.9 30.1 -6.0 7 18.6 SE 11 13 6 7 1010.4 1008.6 0.0
29/05:30pm 36.1 31.8 -5.1 7 19.2 NE 9 15 5 8 1010.0 1008.2 0.0
29/05:00pm 36.6 32.1 -6.8 6 19.7 NNE 9 20 5 11 1009.8 1008.0 0.0
29/04:30pm 36.1 31.6 -7.1 6 19.5 NE 9 17 5 9 1009.9 1008.1 0.0
29/04:00pm 37.1 32.6 -6.4 6 20.0 ESE 9 19 5 10 1010.1 1008.3 0.0
29/03:30pm 37.0 31.4 -6.5 6 19.9 SSE 15 22 8 12 1010.1 1008.3 0.0
29/03:00pm 37.0 32.5 -6.5 6 19.9 NE 9 20 5 11 1010.6 1008.8 0.0
29/02:30pm 36.5 31.8 -4.8 7 19.4 NNE 11 17 6 9 1010.9 1009.1 0.0
29/02:00pm 36.9 30.5 -6.5 6 19.8 NNE 19 28 10 15 1011.2 1009.4 0.0
29/01:30pm 36.3 31.0 -7.0 6 19.6 ESE 13 24 7 13 1011.7 1010.0 0.0
29/01:00pm 35.7 30.4 -7.4 6 19.3 ENE 13 26 7 14 1012.3 1010.6 0.0
29/12:30pm 34.8 30.0 -6.0 7 18.5 ESE 11 19 6 10 1012.9 1011.1 0.0
29/12:00pm 35.2 30.0 -5.7 7 18.7 E 13 24 7 13 1013.4 1011.6 0.0
29/11:30am 35.5 29.8 -3.8 8 18.6 NNE 17 24 9 13 1013.8 1012.0 0.0
29/11:00am 34.0 28.0 -3.3 9 17.6 NNE 19 26 10 14 1014.3 1012.5 0.0
29/10:30am 33.6 27.5 -3.6 9 17.4 NNE 19 28 10 15 1014.5 1012.7 0.0
29/10:00am 32.3 26.1 -3.2 10 16.6 NNE 20 28 11 15 1014.4 1012.6 0.0
29/09:30am 31.0 25.4 -2.9 11 15.7 NNE 17 26 9 14 1014.5 1012.7 0.0
29/09:00am 29.2 23.1 -4.3 11 15.0 NNE 19 24 10 13 1014.4 1012.6 0.0
29/08:30am 27.3 21.7 -2.5 14 13.5 ENE 17 24 9 13 1014.2 1012.4 0.0
29/08:16am 25.8 22.3 1.2 20 11.8 ENE 9 15 5 8 1014.0 1012.2 0.0
29/08:00am 20.7 19.0 1.6 28 8.9 CALM 0 0 0 0 1013.7 1011.9 0.0
29/07:30am 17.1 14.1 1.1 34 7.2 NNW 6 7 3 4 1013.4 1011.6 0.0
29/07:00am 13.8 10.8 0.5 40 5.7 WNW 6 6 3 3 1013.1 1011.3 0.0
29/06:30am 13.2 10.1 -0.1 40 5.6 W 6 7 3 4 1013.0 1011.2 0.0
29/06:00am 14.4 11.3 0.3 38 6.1 W 6 7 3 4 1012.8 1011.0 0.0
29/05:30am 13.6 11.3 0.3 40 5.7 NW 2 6 1 3 1012.4 1010.7 0.0
29/05:00am 13.0 11.0 0.1 41 5.5 CALM 0 0 0 0 1012.0 1010.3 0.0
29/04:30am 14.0 12.1 0.6 40 5.8 CALM 0 0 0 0 1011.9 1010.2 0.0
29/04:00am 13.6 11.6 -0.4 38 5.9 CALM 0 0 0 0 1012.0 1010.3 0.0
29/03:30am 15.1 12.8 0.2 36 6.4 SE 2 6 1 3 1011.9 1010.2 0.0
29/03:00am 14.6 11.2 -0.7 35 6.5 NNW 7 7 4 4 1011.9 1010.2 0.0
29/02:30am 15.2 12.2 -1.8 31 7.0 NNE 4 9 2 5 1012.1 1010.4 0.0
29/02:00am 17.6 14.0 -2.1 26 8.3 NE 7 11 4 6 1012.3 1010.6 0.0
29/01:30am 18.4 15.5 -1.4 26 8.5 NE 4 11 2 6 1012.6 1010.9 0.0
29/01:00am 16.2 14.1 -0.9 31 7.3 CALM 0 0 0 0 1013.2 1011.4 0.0
29/12:30am 16.5 14.4 -1.1 30 7.5 CALM 0 0 0 0 1013.4 1011.6 0.0
29/12:00am 17.2 15.0 -1.4 28 7.9 CALM 0 0 0 0 1013.6 1011.8 0.0
 
Date/Time
CST
Temp
°C
App
Temp
°C
Dew
Point
Rel
Hum
%
Delta-T
°C
Wind Press
QNH
hPa
Press
MSL
hPa
Rain
since 9 am
mm
Dir
 
Spd
km/h
Gust
km/h
Spd
kts
Gust
kts
28/11:30pm 18.4 15.3 -2.5 24 8.8 ENE 4 6 2 3 1013.8 1012.0 0.0
28/11:00pm 20.0 15.7 -5.0 18 10.2 NE 9 11 5 6 1013.8 1012.0 0.0
28/10:30pm 25.0 20.0 -4.3 14 12.6 NE 13 13 7 7 1014.0 1012.2 0.0

Other Formats:

Comma delimited format used in spreadsheet applications
http://www.bom.gov.au/fwo/IDD60801/IDD60801.94231.axf

JavaScript Object Notation format (JSON) in row-major order
http://www.bom.gov.au/fwo/IDD60801/IDD60801.94231.json